ADDS METAR Data INFO
IDs: Format: Raw Decoded Include TAF

Data at: 0401 UTC 11 Dec 2017

KBIS 110352Z AUTO 29012KT 10SM OVC110 07/M03 A2993 RMK AO2 SLP147 T00671033
KBIS 110252Z AUTO 28005KT 10SM CLR 05/M03 A2993 RMK AO2 SLP152 T00501028 56026
KBIS 110152Z AUTO 29005KT 10SM BKN120 06/M02 A2996 RMK AO2 SLP162 T00561017
KBIS 110052Z AUTO 00000KT 10SM SCT120 06/M02 A2997 RMK AO2 SLP164 T00611022
KBIS 102352Z AUTO 29004KT 10SM SCT110 06/M02 A3001 RMK AO2 SLP178 T00611022 10106 20061 55004
KBIS 102252Z AUTO 27007KT 10SM BKN110 07/M02 A3001 RMK AO2 SLP175 T00721022
KBIS 102152Z AUTO 29010KT 10SM SCT110 08/M03 A3001 RMK AO2 SLP176 T00831028
KBIS 102052Z AUTO 28010KT 10SM CLR 09/M02 A3002 RMK AO2 SLP178 T00941022 56010
KBIS 101952Z 29011KT 10SM BKN110 10/M03 A3003 RMK AO2 SLP180 T01001028
KBIS 101852Z 29008KT 10SM CLR 09/M03 A3005 RMK AO2 SLP186 T00891028
KBIS 101752Z 29008KT 10SM CLR 07/M04 A3006 RMK AO2 SLP190 T00671039 10067 21028 50000
KBIS 101652Z 27008KT 10SM CLR 06/M04 A3007 RMK AO2 SLP195 T00561044
KBIS 101552Z 26007KT 10SM CLR 03/M06 A3006 RMK AO2 SLP193 T00281056
KBIS 101452Z 26006KT 10SM CLR 01/M06 A3006 RMK AO2 SLP194 T00061061 51000
KBIS 101352Z 27005KT 10SM CLR M01/M06 A3006 RMK AO2 SLP194 T10061061
KBIS 101252Z 20007KT 10SM CLR M01/M05 A3006 RMK AO2 SLP196 T10111050
KBIS 101152Z 28010KT 10SM CLR 02/M04 A3006 RMK AO2 SLP193 T00221044 10067 20022 53008
KBIS 101052Z AUTO 28010KT 10SM CLR 03/M04 A3003 RMK AO2 SLP185 T00281039
KBIS 100952Z AUTO 28010KT 10SM CLR 03/M04 A3003 RMK AO2 SLP185 T00281039
KBIS 100852Z AUTO 29010KT 10SM CLR 04/M03 A3003 RMK AO2 SLP183 T00441028 51017
KBIS 100752Z AUTO 31010KT 10SM CLR 05/M03 A3001 RMK AO2 SLP178 T00501028
KBIS 100652Z AUTO 31010KT 10SM CLR 06/M03 A3000 RMK AO2 SLP174 T00561028 $
KBIS 100552Z AUTO 31013KT 10SM CLR 07/M03 A2998 RMK AO2 SLP167 T00671033 10067 20044 400671106 53004
KBIS 100452Z AUTO 30013KT 10SM CLR 07/M03 A2997 RMK AO2 SLP163 T00671028
KBIS 100352Z AUTO 30013KT 10SM CLR 06/M03 A2997 RMK AO2 SLP166 T00561028
KBIS 100252Z AUTO 30010KT 10SM CLR 05/M03 A2997 RMK AO2 SLP169 T00501028 53012
KBIS 100152Z AUTO 30013KT 10SM CLR 06/M03 A2995 RMK AO2 SLP162 T00561028
KBIS 100052Z 28012KT 10SM CLR 05/M03 A2991 RMK AO2 SLP150 T00501028
KBIS 092352Z 29012KT 10SM CLR 04/M03 A2993 RMK AO2 SLP153 T00441028 10061 20006 56008
KBIS 092252Z 28010KT 10SM CLR 05/M03 A2993 RMK AO2 SLP154 T00501028
KBIS 092152Z 27010KT 10SM CLR 06/M03 A2994 RMK AO2 SLP155 T00611028
KBIS 092052Z 25007KT 10SM CLR 06/M04 A2996 RMK AO2 SLP160 T00561039 56034
KBIS 091952Z 24006KT 10SM CLR 04/M05 A2998 RMK AO2 SLP167 T00391050
KBIS 091852Z 23007KT 10SM CLR 02/M05 A3003 RMK AO2 SLP185 T00221050
KBIS 091752Z 25006KT 10SM CLR 01/M06 A3006 RMK AO2 SLP198 I6000 T00111061 10011 21106 58018
KBIS 091652Z 24007KT 10SM CLR M02/M06 A3007 RMK AO2 SLP203 T10171061